Time;durP1;ratioP1;P1;durP2;ratioP2;P2;SDS_P1;SDS_P2;PMS_P1;PMS_P2;Temp;Humidity;BMP_temperature;BMP_pressure;BME280_temperature;BME280_humidity;BME280_pressure;Samples;Min_cycle;Max_cycle;Signal;HPM_P1;HPM_P2
2021/12/12 00:01:53;;;;;;;22.55;8.90;;;;;;;5.29;90.14;101911.84;5038182;28;20452;-67
2021/12/12 00:04:32;;;;;;;23.13;9.05;;;;;;;5.22;90.40;101931.22;5056083;28;20060;-66
2021/12/12 00:06:59;;;;;;;27.77;9.05;;;;;;;5.28;90.20;101928.16;5037978;28;20017;-67
2021/12/12 00:09:32;;;;;;;23.35;9.10;;;;;;;5.38;89.71;101929.06;5037999;28;20071;-67
2021/12/12 00:11:59;;;;;;;20.92;8.30;;;;;;;5.31;90.22;101933.03;5056390;28;20055;-66
2021/12/12 00:14:30;;;;;;;24.42;8.32;;;;;;;5.32;90.53;101932.13;5055794;28;20029;-66
2021/12/12 00:16:56;;;;;;;23.80;9.18;;;;;;;5.38;90.20;101920.53;5037774;28;20025;-67
2021/12/12 00:19:23;;;;;;;23.92;8.77;;;;;;;5.38;89.75;101912.84;5055548;28;20500;-67
2021/12/12 00:21:51;;;;;;;24.52;8.52;;;;;;;5.27;90.69;101916.28;5055693;28;20025;-66
2021/12/12 00:24:17;;;;;;;26.33;8.82;;;;;;;5.33;90.76;101913.22;5037666;28;20047;-67
2021/12/12 00:26:48;;;;;;;26.42;8.25;;;;;;;5.35;90.94;101915.66;5037713;28;20040;-67
2021/12/12 00:29:15;;;;;;;26.77;8.55;;;;;;;5.31;90.33;101912.53;5055544;28;20033;-66
2021/12/12 00:31:43;;;;;;;27.55;8.52;;;;;;;5.34;91.29;101911.47;5055465;28;20021;-66
2021/12/12 00:34:08;;;;;;;27.73;8.40;;;;;;;5.29;91.21;101893.91;5037641;28;20431;-67
2021/12/12 00:36:34;;;;;;;23.60;8.02;;;;;;;5.24;91.73;101898.59;5055384;28;20029;-67
2021/12/12 00:39:17;;;;;;;23.33;8.57;;;;;;;5.28;91.29;101897.41;5037462;28;20028;-66
2021/12/12 00:41:49;;;;;;;19.60;7.70;;;;;;;5.30;91.45;101895.53;5055387;28;20519;-67
2021/12/12 00:44:16;;;;;;;24.50;8.95;;;;;;;5.36;91.24;101907.84;5055329;28;20135;-67
2021/12/12 00:46:42;;;;;;;22.42;8.73;;;;;;;5.36;91.71;101901.91;5054589;28;20027;-66
2021/12/12 00:49:08;;;;;;;25.65;8.23;;;;;;;5.38;91.58;101903.41;5055080;28;20037;-67
2021/12/12 00:51:38;;;;;;;25.55;8.95;;;;;;;5.36;91.75;101892.47;5055111;28;20025;-67
2021/12/12 00:54:04;;;;;;;26.75;8.32;;;;;;;5.35;91.49;101890.03;5055014;28;20016;-67
2021/12/12 00:56:30;;;;;;;24.10;7.78;;;;;;;5.28;91.18;101873.53;5037076;28;20120;-67
2021/12/12 00:58:56;;;;;;;24.90;7.97;;;;;;;5.46;91.24;101897.66;5037091;28;20407;-67
2021/12/12 01:01:25;;;;;;;24.13;8.38;;;;;;;5.36;91.08;101877.09;5037014;28;20071;-67
2021/12/12 01:04:00;;;;;;;30.33;8.70;;;;;;;5.34;91.79;101880.72;5037730;28;20025;-66
2021/12/12 01:06:26;;;;;;;20.63;7.95;;;;;;;5.27;91.79;101879.59;5037005;28;20021;-66
2021/12/12 01:08:53;;;;;;;18.95;7.60;;;;;;;5.31;92.17;101886.91;5036912;28;20556;-66
2021/12/12 01:11:41;;;;;;;20.42;7.47;;;;;;;5.30;92.13;101875.03;5054689;28;20380;-64
2021/12/12 01:14:10;;;;;;;29.08;7.95;;;;;;;5.40;91.80;101880.22;5053899;28;20048;-66
2021/12/12 01:16:49;;;;;;;23.25;7.90;;;;;;;5.36;91.72;101881.41;5054713;28;20025;-66
2021/12/12 01:19:18;;;;;;;20.15;7.97;;;;;;;5.35;92.63;101890.84;5054698;28;20041;-66
2021/12/12 01:21:50;;;;;;;27.02;8.48;;;;;;;5.34;92.33;101886.66;5054533;28;20055;-66
2021/12/12 01:24:45;;;;;;;23.35;7.85;;;;;;;5.34;92.37;101878.16;5054498;28;20089;-66
2021/12/12 01:27:10;;;;;;;31.20;8.98;;;;;;;5.34;93.04;101889.22;5052039;28;20037;-65
2021/12/12 01:29:36;;;;;;;19.88;7.80;;;;;;;5.41;92.56;101881.84;5036631;28;20035;-66
2021/12/12 01:32:05;;;;;;;31.02;8.40;;;;;;;5.38;92.30;101875.22;5054307;28;20107;-65
2021/12/12 01:34:32;;;;;;;24.98;8.43;;;;;;;5.30;92.58;101875.03;5036383;28;20025;-66
2021/12/12 01:39:26;;;;;;;33.58;8.18;;;;;;;5.26;93.20;101872.84;5054488;28;20036;-66
2021/12/12 01:42:02;;;;;;;21.05;8.20;;;;;;;5.27;92.98;101884.72;5036183;28;20032;-67
2021/12/12 01:44:44;;;;;;;27.13;8.32;;;;;;;5.23;93.36;101875.66;5054165;28;20387;-66
2021/12/12 01:47:23;;;;;;;23.55;7.93;;;;;;;5.33;93.08;101885.03;5054137;28;20013;-67
2021/12/12 01:49:55;;;;;;;19.98;7.35;;;;;;;5.34;93.32;101885.84;5054259;28;20025;-66
2021/12/12 01:52:23;;;;;;;27.00;8.38;;;;;;;5.37;92.86;101883.84;5054267;28;20024;-66
2021/12/12 01:54:52;;;;;;;24.35;7.85;;;;;;;5.35;93.13;101874.63;5035957;28;20033;-67
2021/12/12 01:57:26;;;;;;;21.40;7.70;;;;;;;5.32;92.77;101875.72;5053780;28;20028;-66
2021/12/12 01:59:53;;;;;;;24.42;7.75;;;;;;;5.40;92.66;101882.78;5052942;28;20545;-66
2021/12/12 02:02:23;;;;;;;22.80;7.80;;;;;;;5.35;93.67;101874.63;5035985;28;20025;-67
2021/12/12 02:04:53;;;;;;;19.67;7.50;;;;;;;5.27;94.01;101882.97;5054067;28;20403;-67
2021/12/12 02:07:23;;;;;;;27.75;7.50;;;;;;;5.28;93.65;101864.09;5053819;28;20025;-67
2021/12/12 02:09:49;;;;;;;22.98;7.05;;;;;;;5.27;94.11;101857.34;5053787;28;20021;-66
2021/12/12 02:12:17;;;;;;;20.27;7.28;;;;;;;5.21;94.15;101855.28;5053666;28;20070;-67
2021/12/12 02:14:43;;;;;;;18.25;6.70;;;;;;;5.16;94.30;101854.84;5053619;28;20029;-66
2021/12/12 02:17:35;;;;;;;21.33;7.63;;;;;;;5.13;94.38;101862.78;5035624;28;20116;-65
2021/12/12 02:20:18;;;;;;;27.25;8.48;;;;;;;5.15;95.13;101848.91;5053489;28;20044;-65
2021/12/12 02:36:20;;;;;;;26.45;7.80;;;;;;;5.27;95.09;101851.41;5054091;28;20052;-66
2021/12/12 02:38:50;;;;;;;22.10;8.10;;;;;;;5.17;95.31;101848.78;5035444;28;20113;-67
2021/12/12 02:41:17;;;;;;;24.92;7.72;;;;;;;5.27;95.06;101849.66;5053217;28;20017;-67
2021/12/12 02:43:52;;;;;;;23.20;7.80;;;;;;;5.24;94.80;101846.53;5035397;28;20024;-67
2021/12/12 02:46:22;;;;;;;20.17;7.20;;;;;;;5.24;95.10;101846.53;5053568;28;20130;-67
2021/12/12 02:48:48;;;;;;;14.70;7.25;;;;;;;5.24;95.40;101846.53;5053174;28;20021;-66
2021/12/12 02:51:17;;;;;;;18.38;7.50;;;;;;;5.26;95.37;101845.44;5053394;28;20108;-67
2021/12/12 02:53:50;;;;;;;21.13;8.70;;;;;;;5.17;95.90;101841.88;5035443;28;20063;-67
2021/12/12 02:56:17;;;;;;;;;;;;;;;5.26;95.90;101835.19;5053542;28;20021;-66
2021/12/12 02:58:45;;;;;;;19.85;8.23;;;;;;;5.19;95.69;101834.09;5053158;28;20007;-66
2021/12/12 03:01:12;;;;;;;17.10;7.60;;;;;;;5.27;95.83;101839.41;5053052;28;20040;-67
2021/12/12 03:03:40;;;;;;;19.23;8.25;;;;;;;5.32;96.01;101836.44;5053383;28;20034;-66
2021/12/12 03:06:08;;;;;;;17.60;8.05;;;;;;;5.35;96.03;101829.34;5053040;28;20036;-66
2021/12/12 03:08:36;;;;;;;14.23;7.57;;;;;;;5.37;95.49;101822.31;5035201;28;20017;-67
2021/12/12 03:11:02;;;;;;;13.68;7.68;;;;;;;5.31;95.70;101812.56;5055146;28;20025;-66
2021/12/12 03:13:27;;;;;;;16.33;8.02;;;;;;;5.36;95.72;101815.56;5056960;28;20031;-67
2021/12/12 03:15:53;;;;;;;16.20;7.93;;;;;;;5.28;95.94;101833.34;5056966;28;20021;-66
2021/12/12 03:18:28;;;;;;;16.60;7.88;;;;;;;5.28;96.61;101832.53;5038988;28;20166;-67
2021/12/12 03:20:59;;;;;;;15.02;7.65;;;;;;;5.38;96.47;101828.25;5056769;28;20045;-67
2021/12/12 03:23:33;;;;;;;16.25;7.78;;;;;;;5.41;95.96;101828.03;5057281;28;20051;-67
2021/12/12 03:26:04;;;;;;;14.10;7.65;;;;;;;5.48;95.89;101830.88;5056789;28;20361;-67
2021/12/12 03:28:34;;;;;;;15.82;7.57;;;;;;;5.44;96.21;101825.19;5057472;28;20028;-67
2021/12/12 03:31:02;;;;;;;17.20;8.02;;;;;;;5.51;96.22;101828.06;5056951;28;20167;-67
2021/12/12 03:33:30;;;;;;;16.98;8.57;;;;;;;5.57;95.40;101827.53;5038755;28;20035;-67
2021/12/12 03:35:58;;;;;;;15.88;8.27;;;;;;;5.46;95.81;101828.44;5056538;28;20020;-66
2021/12/12 03:38:27;;;;;;;19.90;8.70;;;;;;;5.49;96.27;101838.44;5056398;28;20017;-67
2021/12/12 03:40:56;;;;;;;18.63;8.70;;;;;;;5.49;96.23;101830.72;5038591;28;20032;-66
2021/12/12 03:43:22;;;;;;;16.15;8.65;;;;;;;5.56;96.01;101829.31;5056470;28;20195;-67
2021/12/12 03:45:47;;;;;;;18.05;8.70;;;;;;;5.54;95.56;101825.22;5038482;28;20052;-67
2021/12/12 03:48:27;;;;;;;17.45;9.43;;;;;;;5.67;95.40;101828.41;5056367;28;20053;-67
2021/12/12 03:50:56;;;;;;;13.65;7.65;;;;;;;5.67;95.30;101830.97;5056863;28;20112;-66
2021/12/12 03:53:23;;;;;;;17.08;9.38;;;;;;;5.63;96.04;101827.03;5056241;28;20115;-66
2021/12/12 03:55:50;;;;;;;20.75;10.60;;;;;;;5.61;96.39;101828.91;5056077;28;20337;-67
2021/12/12 03:58:15;;;;;;;19.63;10.20;;;;;;;5.55;96.29;101824.28;5038162;28;20483;-66
2021/12/12 04:00:50;;;;;;;17.17;10.43;;;;;;;5.65;95.93;101837.97;5038290;28;20040;-67
2021/12/12 04:03:16;;;;;;;17.67;10.48;;;;;;;5.66;96.06;101835.25;5038183;28;20029;-66
2021/12/12 04:05:53;;;;;;;19.20;11.18;;;;;;;5.76;96.05;101834.50;5055997;28;20422;-66
2021/12/12 04:08:25;;;;;;;20.02;11.02;;;;;;;5.77;95.88;101831.81;5056480;28;20028;-66
2021/12/12 04:10:51;;;;;;;18.25;10.32;;;;;;;5.73;96.05;101821.94;5055986;28;20380;-65
2021/12/12 04:13:16;;;;;;;20.55;9.88;;;;;;;5.69;96.20;101823.13;5055902;28;20021;-66
2021/12/12 04:15:41;;;;;;;24.20;11.30;;;;;;;5.79;96.73;101818.88;5055840;28;20037;-65
2021/12/12 04:18:07;;;;;;;20.52;11.43;;;;;;;5.76;96.34;101808.88;5055679;28;20024;-65
2021/12/12 04:20:36;;;;;;;22.67;12.57;;;;;;;5.77;96.69;101808.72;5055599;28;20518;-66
2021/12/12 04:23:01;;;;;;;22.83;11.90;;;;;;;5.79;96.19;101800.91;5036796;28;20434;-66
2021/12/12 04:25:27;;;;;;;22.70;11.85;;;;;;;5.88;96.36;101813.75;5037690;28;20028;-66
2021/12/12 04:27:53;;;;;;;21.80;11.88;;;;;;;5.88;96.34;101812.94;5055584;28;20357;-66
2021/12/12 04:30:23;;;;;;;18.13;11.73;;;;;;;5.89;96.43;101822.25;5055503;28;20037;-67
2021/12/12 04:32:49;;;;;;;21.58;12.45;;;;;;;5.89;96.57;101822.25;5055482;28;20021;-66
2021/12/12 04:35:20;;;;;;;24.02;12.63;;;;;;;5.90;96.57;101821.34;5037588;28;20025;-67
2021/12/12 04:37:47;;;;;;;19.65;13.63;;;;;;;6.01;96.42;101821.25;5055596;28;20020;-67
2021/12/12 04:40:16;;;;;;;20.90;13.13;;;;;;;6.03;96.46;101814.22;5055281;28;20025;-67
2021/12/12 04:42:43;;;;;;;22.50;13.45;;;;;;;6.14;95.98;101822.78;5055610;28;20160;-67
2021/12/12 04:45:15;;;;;;;24.20;13.88;;;;;;;6.07;95.77;101814.75;5055175;28;20507;-67
2021/12/12 04:50:54;;;;;;;23.20;13.43;;;;;;;6.09;96.34;101825.72;5056014;28;20555;-66
2021/12/12 04:53:41;;;;;;;24.05;14.57;;;;;;;6.08;96.48;101821.53;5037230;28;20028;-67
2021/12/12 04:56:17;;;;;;;23.80;14.20;;;;;;;6.07;96.73;101827.59;5055678;28;20025;-66
2021/12/12 04:58:52;;;;;;;24.55;15.27;;;;;;;6.10;96.08;101829.94;5037083;28;20021;-66
2021/12/12 05:01:27;;;;;;;22.58;14.23;;;;;;;6.11;96.64;101834.09;5055574;28;20036;-67
2021/12/12 05:03:59;;;;;;;26.98;16.20;;;;;;;6.07;96.91;101843.81;5055452;28;20035;-66
2021/12/12 05:06:53;;;;;;;23.88;15.30;;;;;;;6.14;96.89;101836.41;5054912;28;20029;-67
2021/12/12 05:09:50;;;;;;;22.20;14.68;;;;;;;6.17;96.86;101835.34;5054873;28;20100;-66
2021/12/12 05:12:32;;;;;;;23.60;15.57;;;;;;;6.18;97.00;101831.81;5053563;28;20053;-66
2021/12/12 05:15:03;;;;;;;27.35;16.55;;;;;;;6.10;97.24;101838.44;5037591;28;20087;-66
2021/12/12 05:17:42;;;;;;;26.35;16.75;;;;;;;6.23;97.03;101839.94;5054622;28;20500;-67
2021/12/12 05:20:13;;;;;;;27.98;17.35;;;;;;;6.23;96.63;101832.22;5054489;28;20052;-66
2021/12/12 05:22:44;;;;;;;28.50;16.80;;;;;;;6.29;97.01;101841.97;5055304;28;20088;-67
2021/12/12 05:25:14;;;;;;;27.55;16.80;;;;;;;6.28;97.36;101832.66;5054501;28;20498;-67
2021/12/12 05:27:42;;;;;;;31.65;17.95;;;;;;;6.29;97.06;101834.25;5054477;28;20070;-66
2021/12/12 05:30:13;;;;;;;26.08;17.23;;;;;;;6.30;96.82;101839.28;5036534;28;20025;-67
2021/12/12 05:32:39;;;;;;;27.42;17.10;;;;;;;6.30;97.14;101831.59;5036406;28;20388;-66
2021/12/12 05:35:07;;;;;;;34.00;18.20;;;;;;;6.39;97.19;101827.41;5054207;28;20021;-67
2021/12/12 05:37:34;;;;;;;29.25;17.60;;;;;;;6.46;97.01;101827.66;5036270;28;20044;-67
2021/12/12 05:40:03;;;;;;;23.55;15.18;;;;;;;6.44;96.76;101821.84;5054203;28;20028;-67
2021/12/12 05:42:29;;;;;;;32.67;18.65;;;;;;;6.46;97.30;101820.78;5053995;28;20020;-67
2021/12/12 05:44:56;;;;;;;29.35;17.83;;;;;;;6.52;96.94;101824.56;5054125;28;20025;-67
2021/12/12 05:47:21;;;;;;;30.55;18.40;;;;;;;6.51;97.52;101822.94;5053984;28;20025;-67
2021/12/12 05:49:47;;;;;;;30.60;18.90;;;;;;;6.50;97.52;101826.44;5054238;28;20035;-68
2021/12/12 05:52:16;;;;;;;32.42;18.50;;;;;;;6.48;97.79;101821.47;5054552;28;20040;-67
2021/12/12 05:54:43;;;;;;;33.88;19.45;;;;;;;6.58;97.12;101829.16;5035963;28;20032;-67
2021/12/12 05:57:10;;;;;;;39.08;19.60;;;;;;;6.54;97.49;101827.81;5035987;28;20021;-68
2021/12/12 05:59:37;;;;;;;33.05;19.05;;;;;;;6.55;97.33;101834.56;5035948;28;20047;-68
2021/12/12 06:02:05;;;;;;;32.70;19.20;;;;;;;6.55;97.78;101827.66;5053827;28;20454;-68
2021/12/12 06:04:31;;;;;;;34.65;19.17;;;;;;;6.59;97.49;101825.66;5054403;28;20524;-69
2021/12/12 06:06:57;;;;;;;33.13;18.77;;;;;;;6.64;97.19;101832.94;5053758;28;20028;-69
2021/12/12 06:09:23;;;;;;;32.75;19.15;;;;;;;6.69;97.48;101830.78;5054215;28;20029;-67
2021/12/12 06:11:52;;;;;;;32.40;18.33;;;;;;;6.76;97.43;101837.00;5053684;28;20556;-68
2021/12/12 06:14:17;;;;;;;36.33;19.70;;;;;;;6.75;97.36;101841.31;5035764;28;20095;-67
2021/12/12 06:16:44;;;;;;;35.10;17.98;;;;;;;6.65;97.62;101848.22;5053537;28;20477;-67
2021/12/12 06:19:17;;;;;;;35.90;16.92;;;;;;;6.72;97.32;101846.72;5053396;28;20066;-66
2021/12/12 06:21:42;;;;;;;;;;;;;;;6.80;97.48;101850.41;5053967;28;20102;-67
2021/12/12 06:24:08;;;;;;;32.85;17.58;;;;;;;6.78;97.48;101858.22;5053559;28;19908;-68
2021/12/12 06:26:35;;;;;;;35.38;17.42;;;;;;;6.78;97.59;101856.47;5053478;28;20059;-67
2021/12/12 06:29:01;;;;;;;36.53;17.95;;;;;;;6.83;97.44;101860.41;5053429;28;20059;-67
2021/12/12 06:31:27;;;;;;;38.42;18.40;;;;;;;6.78;97.93;101865.94;5053359;28;20021;-67
2021/12/12 06:33:55;;;;;;;38.08;18.55;;;;;;;6.76;98.43;101863.50;5035533;28;20487;-66
2021/12/12 06:36:21;;;;;;;37.90;18.33;;;;;;;6.82;98.27;101859.59;5035525;28;20499;-66
2021/12/12 06:38:51;;;;;;;37.33;18.02;;;;;;;6.89;97.51;101860.66;5035336;28;20029;-66
2021/12/12 06:41:18;;;;;;;35.13;18.15;;;;;;;6.88;97.94;101858.25;5035408;28;20044;-66
2021/12/12 06:43:43;;;;;;;41.55;19.52;;;;;;;6.88;97.71;101856.47;5053120;28;20076;-66
2021/12/12 06:46:10;;;;;;;40.65;18.95;;;;;;;6.93;97.73;101861.19;5058203;28;20029;-66
2021/12/12 06:48:38;;;;;;;36.75;18.80;;;;;;;6.94;98.28;101855.94;5059867;28;20109;-67
2021/12/12 06:51:04;;;;;;;39.78;19.52;;;;;;;6.97;97.99;101865.94;5059878;28;20044;-66
2021/12/12 06:53:32;;;;;;;40.53;18.85;;;;;;;6.89;97.86;101852.16;5041924;28;20422;-66
2021/12/12 06:55:59;;;;;;;40.67;19.27;;;;;;;6.98;98.17;101864.97;5059845;28;20025;-66
2021/12/12 06:58:29;;;;;;;43.13;19.70;;;;;;;6.97;97.94;101860.00;5041868;28;20112;-66
2021/12/12 07:00:59;;;;;;;37.35;17.77;;;;;;;6.94;98.34;101866.22;5059819;28;20420;-66
2021/12/12 07:03:24;;;;;;;51.75;20.92;;;;;;;6.99;98.40;101869.19;5059693;28;20028;-66
2021/12/12 07:05:50;;;;;;;54.47;21.67;;;;;;;6.99;98.92;101873.50;5059802;28;20029;-66
2021/12/12 07:08:19;;;;;;;45.63;22.13;;;;;;;7.00;98.66;101875.13;5060958;28;20047;-67
2021/12/12 07:10:45;;;;;;;45.30;20.30;;;;;;;7.07;98.66;101881.34;5042289;28;20029;-67
2021/12/12 07:13:11;;;;;;;56.58;23.25;;;;;;;7.07;98.53;101877.97;5041709;28;20036;-67
2021/12/12 07:15:41;;;;;;;49.55;21.63;;;;;;;7.17;98.66;101873.63;5059687;28;20029;-68
2021/12/12 07:18:10;;;;;;;48.53;21.40;;;;;;;7.12;98.32;101883.50;5060050;28;20411;-67
2021/12/12 07:20:37;;;;;;;48.05;21.02;;;;;;;7.14;98.41;101889.34;5059580;28;20048;-67
2021/12/12 07:23:05;;;;;;;46.25;20.75;;;;;;;7.16;97.89;101874.56;5059652;28;20036;-67
2021/12/12 07:25:33;;;;;;;54.75;22.65;;;;;;;7.28;98.37;101878.63;5059653;28;20131;-67
2021/12/12 07:28:00;;;;;;;50.28;22.83;;;;;;;7.27;98.55;101878.75;5059598;28;20091;-67
2021/12/12 07:30:25;;;;;;;55.78;21.92;;;;;;;7.28;98.02;101882.94;5059741;28;20051;-67
2021/12/12 07:32:51;;;;;;;48.65;21.02;;;;;;;7.35;98.44;101886.59;5059569;28;20460;-67
2021/12/12 07:35:16;;;;;;;51.03;21.73;;;;;;;7.30;98.31;101894.69;5059506;28;20020;-67
2021/12/12 07:37:43;;;;;;;67.20;22.90;;;;;;;7.18;99.17;101888.09;5059348;28;20021;-68
2021/12/12 07:40:09;;;;;;;54.65;22.20;;;;;;;7.22;98.68;101885.13;5059492;28;20035;-67
2021/12/12 07:42:35;;;;;;;53.53;22.10;;;;;;;7.33;98.81;101893.63;5059456;28;20021;-67
2021/12/12 07:45:02;;;;;;;54.47;22.45;;;;;;;7.36;98.36;101906.19;5059445;28;20052;-67
2021/12/12 07:47:29;;;;;;;60.20;22.15;;;;;;;7.38;98.40;101904.31;5060103;28;20107;-67
2021/12/12 07:49:55;;;;;;;61.25;22.77;;;;;;;7.35;98.56;101905.41;5059356;28;20103;-67
2021/12/12 07:52:26;;;;;;;57.35;23.08;;;;;;;7.38;98.73;101904.31;5041455;28;20073;-68
2021/12/12 07:54:53;;;;;;;53.78;21.80;;;;;;;7.41;97.64;101909.97;5059761;28;20036;-68
2021/12/12 07:57:20;;;;;;;64.75;22.42;;;;;;;7.44;98.13;101911.47;5057696;28;20104;-68
2021/12/12 07:59:46;;;;;;;67.18;21.23;;;;;;;7.42;98.42;101913.34;5038351;28;20025;-68
2021/12/12 08:02:14;;;;;;;46.13;21.35;;;;;;;7.43;98.39;101915.81;5038359;28;20035;-67
2021/12/12 08:04:41;;;;;;;51.45;20.92;;;;;;;7.46;98.08;101918.09;5056007;28;20033;-68
2021/12/12 08:07:14;;;;;;;48.85;19.88;;;;;;;7.52;98.36;101923.66;5056067;28;20033;-69
2021/12/12 08:09:43;;;;;;;55.25;21.02;;;;;;;7.52;98.31;101927.03;5055929;28;20029;-67
2021/12/12 08:12:11;;;;;;;44.28;19.08;;;;;;;7.52;98.06;101931.38;5056727;28;20035;-67
2021/12/12 08:14:36;;;;;;;47.10;18.95;;;;;;;7.56;98.36;101943.00;5056439;28;20021;-67
2021/12/12 08:17:02;;;;;;;45.90;19.10;;;;;;;7.65;98.00;101939.56;5055832;28;20032;-68
2021/12/12 08:19:29;;;;;;;46.38;18.65;;;;;;;7.64;97.63;101936.19;5034784;28;20064;-68
2021/12/12 08:22:01;;;;;;;42.90;19.17;;;;;;;7.70;97.83;101934.81;5036910;28;20108;-68
2021/12/12 08:24:27;;;;;;;48.63;19.63;;;;;;;7.65;98.02;101937.84;5037415;28;20025;-68
2021/12/12 08:26:54;;;;;;;48.65;19.52;;;;;;;7.62;97.59;101950.16;5034545;28;20040;-67
2021/12/12 08:29:20;;;;;;;49.75;19.90;;;;;;;7.69;97.99;101946.88;5034384;28;20056;-66
2021/12/12 08:31:46;;;;;;;41.40;19.25;;;;;;;7.71;98.22;101951.06;5034287;28;20036;-68
2021/12/12 08:34:12;;;;;;;55.20;20.90;;;;;;;7.64;98.29;101945.69;5035976;28;20017;-67
2021/12/12 08:36:46;;;;;;;55.15;20.15;;;;;;;7.69;98.16;101952.03;5035671;28;20103;-67
2021/12/12 08:39:12;;;;;;;49.72;20.45;;;;;;;7.76;98.67;101959.19;5035487;28;20032;-68
2021/12/12 08:41:38;;;;;;;54.40;20.30;;;;;;;7.75;97.96;101955.81;5034220;28;20033;-68
2021/12/12 08:44:06;;;;;;;51.78;19.90;;;;;;;7.78;98.26;101952.16;5035478;28;20036;-68
2021/12/12 08:46:32;;;;;;;54.33;20.10;;;;;;;7.82;98.09;101958.63;5035618;28;20025;-68
2021/12/12 08:48:58;;;;;;;46.90;18.55;;;;;;;7.78;97.94;101963.25;5034081;28;20480;-67
2021/12/12 08:51:30;;;;;;;47.30;19.48;;;;;;;7.79;98.12;101962.28;5035258;28;20083;-68
2021/12/12 08:54:01;;;;;;;55.45;19.80;;;;;;;7.90;98.77;101961.31;5033861;28;20025;-69
2021/12/12 08:56:40;;;;;;;51.15;19.13;;;;;;;7.88;97.75;101970.94;5033942;28;20029;-68
2021/12/12 08:59:06;;;;;;;54.42;19.48;;;;;;;7.86;98.66;101968.53;5035187;28;20026;-67
2021/12/12 09:01:31;;;;;;;61.38;20.02;;;;;;;7.87;99.05;101975.28;5035591;28;20464;-68
2021/12/12 09:04:01;;;;;;;48.97;19.52;;;;;;;7.87;98.71;101977.84;5033820;28;20026;-68
2021/12/12 09:06:36;;;;;;;46.30;19.45;;;;;;;7.84;98.23;101977.31;5035047;28;20047;-68
2021/12/12 09:09:20;;;;;;;50.83;20.17;;;;;;;7.94;98.95;101990.16;5035133;28;20020;-67
2021/12/12 09:11:58;;;;;;;54.75;20.10;;;;;;;7.96;98.51;101989.06;5033639;28;20048;-68
2021/12/12 09:14:30;;;;;;;50.90;19.35;;;;;;;7.98;98.86;101983.78;5035423;28;20033;-68
2021/12/12 09:17:07;;;;;;;47.47;19.67;;;;;;;7.98;98.95;101988.94;5033413;28;20116;-68
2021/12/12 09:19:39;;;;;;;47.50;18.13;;;;;;;7.99;98.97;101993.13;5042881;28;20534;-68
2021/12/12 09:22:09;;;;;;;46.65;18.35;;;;;;;8.05;98.32;101995.94;5054569;28;20029;-66
2021/12/12 09:24:51;;;;;;;44.58;17.65;;;;;;;8.06;98.43;101994.22;5054848;28;20491;-66
2021/12/12 09:27:24;;;;;;;40.88;16.48;;;;;;;8.18;98.65;102003.38;5036483;28;20107;-67
2021/12/12 09:29:50;;;;;;;;;;;;;;;8.16;98.63;101994.16;5054745;28;20441;-67
2021/12/12 09:32:30;;;;;;;34.47;16.33;;;;;;;8.24;98.08;102007.97;5054120;28;20351;-67
2021/12/12 09:35:03;;;;;;;40.22;16.80;;;;;;;8.36;97.94;102013.75;5054801;28;20059;-68
2021/12/12 09:37:39;;;;;;;35.50;16.27;;;;;;;8.36;97.62;102018.88;5054590;28;20025;-68
2021/12/12 09:40:40;;;;;;;40.05;16.40;;;;;;;8.41;97.70;102014.16;5055383;28;20048;-68
2021/12/12 09:43:31;;;;;;;37.20;16.25;;;;;;;8.39;97.94;102005.75;5036440;28;20021;-68
2021/12/12 09:46:06;;;;;;;32.40;14.90;;;;;;;8.40;97.93;102009.97;5054066;28;20032;-68
2021/12/12 09:52:22;;;;;;;28.75;14.43;;;;;;;8.49;97.85;102010.88;5054762;28;20125;-68
2021/12/12 09:55:05;;;;;;;29.40;14.05;;;;;;;8.46;97.98;102014.56;5053839;28;20066;-67
2021/12/12 09:57:39;;;;;;;26.13;13.63;;;;;;;8.43;97.56;102017.41;5035927;28;20024;-67
2021/12/12 10:00:07;;;;;;;30.30;13.63;;;;;;;8.41;98.23;102013.34;5053699;28;20084;-68
2021/12/12 10:02:59;;;;;;;24.25;13.50;;;;;;;8.44;98.06;102015.66;5053792;28;20047;-68
2021/12/12 10:05:33;;;;;;;31.10;13.73;;;;;;;8.47;98.36;102016.16;5053672;28;20025;-68
2021/12/12 10:08:13;;;;;;;30.15;13.30;;;;;;;8.49;97.40;102013.47;5053942;28;20151;-68
2021/12/12 10:10:55;;;;;;;31.92;13.95;;;;;;;8.49;97.74;102003.16;5054098;28;20087;-68
2021/12/12 10:13:38;;;;;;;27.20;14.02;;;;;;;8.49;97.75;102010.88;5053844;28;20461;-68
2021/12/12 10:16:31;;;;;;;24.92;13.02;;;;;;;8.51;97.89;102012.34;5053567;28;20047;-68
2021/12/12 10:19:03;;;;;;;27.50;13.10;;;;;;;8.58;97.74;101999.72;5053439;28;20049;-68
2021/12/12 10:21:56;;;;;;;25.58;12.60;;;;;;;8.57;97.74;102009.22;5034918;28;20069;-67
2021/12/12 10:24:35;;;;;;;23.23;11.60;;;;;;;8.58;97.48;102010.03;5053701;28;20070;-68
2021/12/12 10:27:32;;;;;;;22.38;11.93;;;;;;;8.62;97.41;102011.34;5035702;28;20120;-68
2021/12/12 10:30:08;;;;;;;19.92;10.68;;;;;;;8.62;97.62;102015.69;5018338;28;20032;-68
2021/12/12 10:32:44;;;;;;;18.80;9.90;;;;;;;8.55;97.33;102013.69;5035488;28;20535;-68
2021/12/12 10:35:15;;;;;;;21.27;10.50;;;;;;;8.63;97.79;102009.56;5053396;28;20033;-68
2021/12/12 10:38:03;;;;;;;20.95;10.55;;;;;;;8.67;96.92;102011.72;5053324;28;20029;-68
2021/12/12 10:40:34;;;;;;;16.20;9.07;;;;;;;8.61;97.26;102021.81;5053280;28;20078;-69
2021/12/12 10:43:04;;;;;;;17.60;9.50;;;;;;;8.67;97.34;102016.06;5035572;28;20032;-68
2021/12/12 10:45:35;;;;;;;14.90;10.30;;;;;;;8.76;97.16;102022.94;5053768;28;20107;-67
2021/12/12 10:48:05;;;;;;;17.45;9.77;;;;;;;8.76;96.67;102020.34;5035446;28;20025;-67
2021/12/12 10:50:55;;;;;;;15.57;9.85;;;;;;;8.77;97.13;102021.97;5053758;28;20018;-67
2021/12/12 10:53:37;;;;;;;18.42;10.05;;;;;;;8.76;97.02;102020.34;5053264;28;20021;-67
2021/12/12 10:56:05;;;;;;;19.08;10.68;;;;;;;8.85;96.48;102014.31;5035535;28;20029;-67
2021/12/12 10:58:46;;;;;;;16.77;10.20;;;;;;;8.79;96.70;102025.22;5053123;28;20025;-68
2021/12/12 11:01:24;;;;;;;17.30;10.20;;;;;;;8.77;97.23;102019.38;5035342;28;20112;-68
2021/12/12 11:04:10;;;;;;;17.35;9.93;;;;;;;8.88;96.61;102026.94;5053073;28;20021;-68
2021/12/12 11:06:41;;;;;;;15.80;9.90;;;;;;;8.84;96.89;102035.13;5053158;28;20083;-68
2021/12/12 11:09:14;;;;;;;17.65;10.70;;;;;;;8.91;96.14;102025.84;5035019;28;20132;-68
2021/12/12 11:11:46;;;;;;;18.25;10.18;;;;;;;8.83;96.93;102031.69;5053384;28;20021;-68
2021/12/12 11:14:22;;;;;;;19.55;11.27;;;;;;;8.80;97.80;102022.50;5035145;28;20055;-67
2021/12/12 11:17:00;;;;;;;21.88;10.65;;;;;;;8.79;97.50;102022.66;5052889;28;20035;-68
2021/12/12 11:19:38;;;;;;;15.60;9.98;;;;;;;9.30;95.14;102023.00;5034948;28;20514;-67
2021/12/12 11:22:24;;;;;;;16.55;9.55;;;;;;;9.51;93.89;102027.84;5053067;28;20032;-67
2021/12/12 11:24:58;;;;;;;17.65;10.50;;;;;;;9.40;93.78;102029.69;5035117;28;20036;-67
2021/12/12 11:27:31;;;;;;;17.92;11.13;;;;;;;9.02;95.76;102029.00;5052876;28;20025;-68
2021/12/12 11:30:01;;;;;;;18.25;11.23;;;;;;;8.96;96.83;102026.22;5052833;28;20100;-68
2021/12/12 11:32:30;;;;;;;17.85;11.13;;;;;;;8.90;96.96;102019.88;5037741;28;20487;-68
2021/12/12 11:34:58;;;;;;;16.75;10.63;;;;;;;8.99;97.62;102019.00;5056645;28;20020;-67
2021/12/12 11:37:43;;;;;;;19.45;11.13;;;;;;;9.15;97.00;102030.41;5038505;28;20025;-68
2021/12/12 11:40:20;;;;;;;16.77;10.88;;;;;;;9.22;96.72;102031.47;5038605;28;20025;-67
2021/12/12 11:43:11;;;;;;;16.70;10.70;;;;;;;9.16;97.07;102032.06;5056484;28;20032;-68
2021/12/12 11:45:41;;;;;;;21.30;10.68;;;;;;;9.23;97.48;102033.06;5038540;28;20033;-68
2021/12/12 11:48:30;;;;;;;20.73;11.60;;;;;;;9.23;97.44;102038.22;5038531;28;20024;-67
2021/12/12 11:51:03;;;;;;;18.08;11.55;;;;;;;9.34;96.72;102037.22;5038425;28;20025;-68
2021/12/12 11:53:42;;;;;;;19.02;11.68;;;;;;;9.23;96.33;102030.50;5056725;28;20468;-68
2021/12/12 11:56:13;;;;;;;18.25;11.50;;;;;;;9.25;97.09;102031.97;5056138;28;20029;-67
2021/12/12 11:58:56;;;;;;;15.27;11.25;;;;;;;9.35;96.92;102038.81;5038202;28;20021;-66
2021/12/12 12:01:28;;;;;;;15.68;10.80;;;;;;;9.34;96.62;102024.31;5038130;28;20361;-67
2021/12/12 12:04:11;;;;;;;18.95;11.05;;;;;;;9.51;96.88;102035.56;5038167;28;20032;-67